Time;durP1;ratioP1;P1;durP2;ratioP2;P2;SDS_P1;SDS_P2;PMS_P1;PMS_P2;Temp;Humidity;BMP_temperature;BMP_pressure;BME280_temperature;BME280_humidity;BME280_pressure;Samples;Min_cycle;Max_cycle;Signal;HPM_P1;HPM_P2
2023/05/16 00:01:00;;;;;;;25.85;19.15;;;;;14.10;98382.00;;;;5052731;28;20157;-64
2023/05/16 00:03:26;;;;;;;28.92;19.15;;;;;14.10;98381.00;;;;5052649;28;20049;-63
2023/05/16 00:05:54;;;;;;;24.45;17.90;;;;;14.10;98374.00;;;;5052306;28;20098;-64
2023/05/16 00:08:21;;;;;;;27.52;19.25;;;;;14.20;98370.00;;;;5052300;28;20049;-65
2023/05/16 00:10:48;;;;;;;24.73;18.55;;;;;14.10;98365.00;;;;5052269;28;20041;-65
2023/05/16 00:13:15;;;;;;;24.88;18.95;;;;;14.10;98367.00;;;;5051258;28;20456;-64
2023/05/16 00:15:43;;;;;;;23.67;17.77;;;;;14.20;98372.00;;;;5052568;28;20048;-65
2023/05/16 00:18:13;;;;;;;24.17;17.50;;;;;14.20;98373.00;;;;5052594;28;20055;-63
2023/05/16 00:20:40;;;;;;;25.25;19.08;;;;;14.20;98367.00;;;;5052740;28;20127;-64
2023/05/16 00:23:09;;;;;;;25.02;17.73;;;;;14.20;98370.00;;;;5052637;28;20049;-64
2023/05/16 00:25:36;;;;;;;25.55;17.75;;;;;14.20;98362.00;;;;5053092;28;20053;-65
2023/05/16 00:28:02;;;;;;;25.27;17.85;;;;;14.20;98368.00;;;;5052721;28;20052;-65
2023/05/16 00:30:29;;;;;;;23.77;18.60;;;;;14.20;98370.00;;;;5051743;28;20119;-65
2023/05/16 00:32:56;;;;;;;33.33;18.10;;;;;14.20;98376.00;;;;5051990;28;20037;-65
2023/05/16 00:35:23;;;;;;;26.70;18.45;;;;;14.20;98376.00;;;;5050539;28;20052;-64
2023/05/16 00:37:50;;;;;;;27.38;18.58;;;;;14.20;98374.00;;;;5051871;28;20094;-64
2023/05/16 00:40:16;;;;;;;25.73;17.95;;;;;14.20;98380.00;;;;5051576;28;20045;-65
2023/05/16 00:42:43;;;;;;;27.10;18.42;;;;;14.20;98376.00;;;;5051765;28;20041;-64
2023/05/16 00:45:10;;;;;;;26.15;17.65;;;;;14.10;98374.00;;;;5051716;28;20047;-64
2023/05/16 00:47:37;;;;;;;25.95;17.52;;;;;14.20;98373.00;;;;5051826;28;20049;-64
2023/05/16 00:50:04;;;;;;;26.13;17.65;;;;;14.10;98384.00;;;;5051718;28;20033;-64
2023/05/16 00:52:32;;;;;;;27.60;18.00;;;;;14.10;98375.00;;;;5051649;28;20134;-64
2023/05/16 00:54:59;;;;;;;25.17;18.23;;;;;14.10;98368.00;;;;5051640;28;20040;-64
2023/05/16 00:57:26;;;;;;;23.63;17.70;;;;;14.10;98372.00;;;;5051778;28;20049;-64
2023/05/16 00:59:53;;;;;;;22.50;16.85;;;;;14.00;98367.00;;;;5051481;28;20132;-64
2023/05/16 01:02:20;;;;;;;24.77;16.75;;;;;14.00;98377.00;;;;5049976;28;20146;-64
2023/05/16 01:04:47;;;;;;;23.02;17.65;;;;;14.00;98367.00;;;;5050298;28;20571;-63
2023/05/16 01:07:16;;;;;;;22.77;17.50;;;;;14.00;98374.00;;;;5050100;28;20075;-65
2023/05/16 01:09:42;;;;;;;24.38;16.92;;;;;14.10;98367.00;;;;5051419;28;20051;-65
2023/05/16 01:12:54;;;;;;;23.23;16.73;;;;;14.20;98374.00;;;;5050283;28;20496;-63
2023/05/16 01:15:26;;;;;;;25.38;17.40;;;;;14.20;98371.00;;;;5012597;28;20050;-63
2023/05/16 01:17:57;;;;;;;24.30;17.40;;;;;14.20;98370.00;;;;5029286;28;20068;-63
2023/05/16 01:20:48;;;;;;;22.27;16.67;;;;;14.30;98376.00;;;;5034605;28;20067;-63
2023/05/16 01:23:17;;;;;;;25.23;16.55;;;;;14.30;98374.00;;;;5053966;28;20049;-64
2023/05/16 01:25:46;;;;;;;23.65;16.38;;;;;14.20;98375.00;;;;5055225;28;20044;-64
2023/05/16 01:28:16;;;;;;;20.92;16.17;;;;;14.20;98374.00;;;;5055166;28;20045;-63
2023/05/16 01:30:43;;;;;;;20.30;15.57;;;;;14.20;98375.00;;;;5054689;28;20068;-63
2023/05/16 01:33:10;;;;;;;21.05;15.15;;;;;14.20;98375.00;;;;5054947;28;20043;-63
2023/05/16 01:35:46;;;;;;;21.48;15.00;;;;;14.20;98374.00;;;;5037007;28;20502;-65
2023/05/16 01:38:23;;;;;;;20.65;15.82;;;;;14.20;98374.00;;;;5054785;28;20052;-65
2023/05/16 01:40:51;;;;;;;20.10;14.45;;;;;14.20;98375.00;;;;5054704;28;20037;-64
2023/05/16 01:43:29;;;;;;;21.95;15.15;;;;;14.20;98376.00;;;;5053506;28;20103;-64
2023/05/16 01:46:02;;;;;;;20.70;14.82;;;;;14.10;98373.00;;;;5054838;28;20461;-64
2023/05/16 01:48:38;;;;;;;19.95;14.15;;;;;14.10;98363.00;;;;5054834;28;20065;-64
2023/05/16 01:51:05;;;;;;;19.80;14.25;;;;;14.10;98367.00;;;;5054539;28;20033;-64
2023/05/16 01:53:37;;;;;;;20.17;14.13;;;;;14.10;98368.00;;;;5054610;28;20041;-64
2023/05/16 01:56:09;;;;;;;20.75;14.32;;;;;14.00;98377.00;;;;5054164;28;20049;-64
2023/05/16 01:58:37;;;;;;;19.63;13.60;;;;;13.90;98377.00;;;;5054254;28;20055;-64
2023/05/16 02:01:05;;;;;;;25.05;15.82;;;;;13.80;98373.00;;;;5057138;28;20041;-64
2023/05/16 02:03:32;;;;;;;21.15;14.45;;;;;13.80;98379.00;;;;5056300;28;20044;-64
2023/05/16 02:05:59;;;;;;;20.02;12.85;;;;;13.80;98377.00;;;;5054420;28;20045;-64
2023/05/16 02:08:27;;;;;;;18.83;13.40;;;;;13.80;98379.00;;;;5054141;28;20053;-63
2023/05/16 02:10:54;;;;;;;21.00;13.68;;;;;13.80;98378.00;;;;5054970;28;20045;-63
2023/05/16 02:13:21;;;;;;;18.23;13.82;;;;;13.90;98383.00;;;;5054609;28;20049;-64
2023/05/16 02:15:47;;;;;;;17.73;13.18;;;;;13.90;98381.00;;;;5055478;28;20041;-64
2023/05/16 02:18:14;;;;;;;17.83;12.77;;;;;13.90;98379.00;;;;5054853;28;20147;-65
2023/05/16 02:20:41;;;;;;;17.50;13.30;;;;;13.80;98383.00;;;;5055426;28;20037;-65
2023/05/16 02:23:08;;;;;;;19.23;13.50;;;;;13.80;98384.00;;;;5056201;28;20056;-64
2023/05/16 02:25:34;;;;;;;18.10;12.75;;;;;13.70;98384.00;;;;5054834;28;20045;-65
2023/05/16 02:28:01;;;;;;;17.17;11.95;;;;;13.70;98384.00;;;;5054923;28;20037;-63
2023/05/16 02:30:27;;;;;;;16.65;13.10;;;;;13.70;98385.00;;;;5052829;28;20056;-63
2023/05/16 02:32:54;;;;;;;15.48;11.55;;;;;13.70;98389.00;;;;5053104;28;20069;-64
2023/05/16 02:35:21;;;;;;;18.40;12.27;;;;;13.70;98387.00;;;;5052841;28;20175;-63
2023/05/16 02:37:47;;;;;;;23.98;13.32;;;;;13.70;98386.00;;;;5053006;28;20505;-63
2023/05/16 02:40:15;;;;;;;15.82;11.15;;;;;13.60;98382.00;;;;5052621;28;20041;-64
2023/05/16 02:42:42;;;;;;;15.30;10.95;;;;;13.60;98384.00;;;;5053565;28;20044;-63
2023/05/16 02:45:09;;;;;;;18.95;11.95;;;;;13.60;98377.00;;;;5052446;28;20107;-63
2023/05/16 02:47:35;;;;;;;19.63;12.32;;;;;13.60;98381.00;;;;5052511;28;20390;-63
2023/05/16 02:50:02;;;;;;;17.65;12.07;;;;;13.60;98383.00;;;;5053258;28;20563;-63
2023/05/16 02:52:29;;;;;;;18.70;10.43;;;;;13.60;98381.00;;;;5052551;28;20033;-63
2023/05/16 02:54:56;;;;;;;16.75;11.75;;;;;13.60;98386.00;;;;5035996;28;20045;-64
2023/05/16 02:57:42;;;;;;;17.63;12.15;;;;;13.60;98384.00;;;;5038366;28;20077;-64
2023/05/16 03:00:11;;;;;;;17.27;11.43;;;;;13.50;98388.00;;;;5053330;28;20068;-64
2023/05/16 03:02:38;;;;;;;15.70;10.90;;;;;13.60;98392.00;;;;5052413;28;20433;-63
2023/05/16 03:05:06;;;;;;;16.42;10.90;;;;;13.60;98386.00;;;;5052159;28;20055;-65
2023/05/16 03:07:33;;;;;;;16.10;11.25;;;;;13.60;98399.00;;;;5052150;28;20049;-65
2023/05/16 03:09:59;;;;;;;15.10;10.45;;;;;13.70;98390.00;;;;5051941;28;20071;-65
2023/05/16 03:12:26;;;;;;;17.42;10.70;;;;;13.70;98388.00;;;;5052281;28;20036;-65
2023/05/16 03:14:53;;;;;;;15.65;11.05;;;;;13.70;98394.00;;;;5052895;28;20498;-65
2023/05/16 03:17:19;;;;;;;18.67;11.15;;;;;13.70;98393.00;;;;5053167;28;20047;-65
2023/05/16 03:19:46;;;;;;;14.68;10.30;;;;;13.70;98403.00;;;;5052777;28;20040;-65
2023/05/16 03:22:13;;;;;;;15.60;10.63;;;;;13.70;98406.00;;;;5052919;28;20497;-65
2023/05/16 03:24:41;;;;;;;31.45;21.08;;;;;13.60;98398.00;;;;5063430;28;20104;-65
2023/05/16 03:27:10;;;;;;;18.77;11.25;;;;;13.60;98400.00;;;;5065934;28;20033;-65
2023/05/16 03:29:37;;;;;;;16.02;10.60;;;;;13.70;98396.00;;;;5054795;28;20139;-65
2023/05/16 03:32:04;;;;;;;16.30;10.23;;;;;13.70;98404.00;;;;5053110;28;20049;-65
2023/05/16 03:34:31;;;;;;;15.55;9.90;;;;;13.60;98404.00;;;;5053266;28;20064;-64
2023/05/16 03:36:58;;;;;;;14.60;10.23;;;;;13.70;98405.00;;;;5053838;28;20045;-64
2023/05/16 03:39:24;;;;;;;17.25;9.88;;;;;13.60;98401.00;;;;5052045;28;20045;-64
2023/05/16 03:41:51;;;;;;;14.52;10.50;;;;;13.60;98406.00;;;;5052977;28;20047;-63
2023/05/16 03:44:18;;;;;;;15.85;10.30;;;;;13.60;98408.00;;;;5051725;28;20045;-63
2023/05/16 03:46:44;;;;;;;17.42;10.05;;;;;13.50;98407.00;;;;5053064;28;20390;-63
2023/05/16 03:49:11;;;;;;;14.05;10.10;;;;;13.50;98404.00;;;;5051490;28;20056;-63
2023/05/16 03:51:37;;;;;;;18.60;10.98;;;;;13.40;98398.00;;;;5051137;28;20049;-63
2023/05/16 03:54:04;;;;;;;15.68;11.18;;;;;13.30;98418.00;;;;5050970;28;20057;-64
2023/05/16 03:56:31;;;;;;;19.48;10.45;;;;;13.30;98419.00;;;;5052468;28;20041;-63
2023/05/16 03:58:57;;;;;;;17.67;10.00;;;;;13.30;98416.00;;;;5050700;28;20049;-64
2023/05/16 04:01:24;;;;;;;13.95;9.93;;;;;13.40;98419.00;;;;5052155;28;20064;-63
2023/05/16 04:03:51;;;;;;;17.67;9.88;;;;;13.40;98417.00;;;;5052047;28;20064;-63
2023/05/16 04:06:17;;;;;;;18.10;10.82;;;;;13.50;98420.00;;;;5052185;28;20445;-63
2023/05/16 04:08:44;;;;;;;19.35;10.45;;;;;13.40;98419.00;;;;5052023;28;20041;-64
2023/05/16 04:11:11;;;;;;;15.90;10.13;;;;;13.40;98421.00;;;;5051814;28;20044;-63
2023/05/16 04:13:37;;;;;;;12.70;8.55;;;;;13.40;98431.00;;;;5051929;28;20051;-63
2023/05/16 04:16:05;;;;;;;14.75;9.20;;;;;13.30;98435.00;;;;5052139;28;20094;-64
2023/05/16 04:18:31;;;;;;;14.02;9.23;;;;;13.40;98438.00;;;;5052066;28;20044;-64
2023/05/16 04:20:58;;;;;;;12.35;8.27;;;;;13.40;98438.00;;;;5050686;28;20151;-63
2023/05/16 04:23:24;;;;;;;13.63;8.48;;;;;13.30;98439.00;;;;5051912;28;20037;-64
2023/05/16 04:25:51;;;;;;;14.88;9.15;;;;;13.30;98442.00;;;;5051784;28;20041;-64
2023/05/16 04:28:18;;;;;;;13.43;8.50;;;;;13.30;98450.00;;;;5051885;28;20041;-64
2023/05/16 04:30:44;;;;;;;12.25;7.75;;;;;13.30;98450.00;;;;5051797;28;20559;-64
2023/05/16 04:33:11;;;;;;;13.32;7.90;;;;;13.20;98441.00;;;;5051986;28;20071;-63
2023/05/16 04:35:38;;;;;;;10.48;6.57;;;;;13.20;98441.00;;;;5051973;28;20049;-64
2023/05/16 04:38:05;;;;;;;11.10;6.70;;;;;13.30;98439.00;;;;5052177;28;20056;-64
2023/05/16 04:40:31;;;;;;;10.70;6.82;;;;;13.40;98447.00;;;;5050711;28;20141;-64
2023/05/16 04:42:58;;;;;;;10.07;6.05;;;;;13.40;98442.00;;;;5051812;28;20037;-65
2023/05/16 04:45:25;;;;;;;13.75;6.13;;;;;13.50;98438.00;;;;5051957;28;20095;-65
2023/05/16 04:47:52;;;;;;;8.95;5.65;;;;;13.50;98445.00;;;;5051880;28;20045;-64
2023/05/16 04:50:18;;;;;;;10.23;6.03;;;;;13.50;98455.00;;;;5051669;28;20132;-64
2023/05/16 04:52:45;;;;;;;10.48;5.22;;;;;13.40;98447.00;;;;5052141;28;20123;-65
2023/05/16 04:55:12;;;;;;;7.47;5.18;;;;;13.40;98453.00;;;;5055104;28;20061;-64
2023/05/16 04:57:38;;;;;;;7.50;4.47;;;;;13.40;98448.00;;;;5056171;28;20049;-65
2023/05/16 05:00:12;;;;;;;5.78;3.58;;;;;13.50;98450.00;;;;5055998;28;20041;-64
2023/05/16 05:02:38;;;;;;;5.25;3.80;;;;;13.40;98460.00;;;;5057039;28;20041;-64
2023/05/16 05:05:06;;;;;;;5.72;3.00;;;;;13.50;98452.00;;;;5054311;28;20044;-64
2023/05/16 05:07:33;;;;;;;7.70;3.55;;;;;13.40;98458.00;;;;5055840;28;20045;-64
2023/05/16 05:09:59;;;;;;;3.15;2.58;;;;;13.40;98461.00;;;;5055246;28;20052;-64
2023/05/16 05:12:26;;;;;;;5.43;2.88;;;;;13.40;98461.00;;;;5059243;28;20041;-64
2023/05/16 05:14:53;;;;;;;4.10;2.53;;;;;13.50;98462.00;;;;5057309;28;20063;-64
2023/05/16 05:17:20;;;;;;;6.10;2.50;;;;;13.50;98473.00;;;;5057211;28;20429;-64
2023/05/16 05:19:47;;;;;;;2.97;2.05;;;;;13.60;98466.00;;;;5058233;28;20045;-65
2023/05/16 05:22:14;;;;;;;3.15;1.90;;;;;13.50;98473.00;;;;5058457;28;20056;-63
2023/05/16 05:24:40;;;;;;;2.38;1.60;;;;;13.40;98476.00;;;;5058117;28;20045;-63
2023/05/16 05:27:07;;;;;;;3.55;1.60;;;;;13.40;98464.00;;;;5058988;28;20086;-63
2023/05/16 05:29:33;;;;;;;2.10;1.90;;;;;13.50;98468.00;;;;5058304;28;20049;-64
2023/05/16 05:32:00;;;;;;;1.60;1.50;;;;;13.50;98468.00;;;;5058419;28;20053;-64
2023/05/16 05:34:27;;;;;;;3.05;1.55;;;;;13.50;98472.00;;;;5057889;28;20040;-63
2023/05/16 05:36:53;;;;;;;1.85;1.30;;;;;13.60;98476.00;;;;5057550;28;20440;-64
2023/05/16 05:39:20;;;;;;;1.38;1.27;;;;;13.60;98472.00;;;;5056604;28;20052;-64
2023/05/16 05:41:46;;;;;;;1.50;1.40;;;;;13.60;98476.00;;;;5058061;28;20037;-63
2023/05/16 05:44:13;;;;;;;1.83;1.25;;;;;13.60;98479.00;;;;5057434;28;20049;-64
2023/05/16 05:46:40;;;;;;;1.30;1.20;;;;;13.60;98485.00;;;;5057486;28;20486;-64
2023/05/16 05:49:06;;;;;;;2.10;1.30;;;;;13.50;98497.00;;;;5057120;28;20115;-64
2023/05/16 05:51:33;;;;;;;1.30;1.20;;;;;13.60;98486.00;;;;5057278;28;20102;-64
2023/05/16 05:54:00;;;;;;;2.78;1.60;;;;;13.60;98486.00;;;;5057258;28;20551;-65
2023/05/16 05:56:27;;;;;;;1.50;1.40;;;;;13.50;98485.00;;;;5057510;28;20044;-64
2023/05/16 05:58:53;;;;;;;1.40;1.30;;;;;13.40;98477.00;;;;5057256;28;20494;-64
2023/05/16 06:01:21;;;;;;;1.70;1.40;;;;;13.50;98489.00;;;;5057560;28;20525;-64
2023/05/16 06:03:47;;;;;;;1.50;1.40;;;;;13.50;98490.00;;;;5057448;28;20060;-64
2023/05/16 06:06:14;;;;;;;1.25;1.17;;;;;13.50;98486.00;;;;5057347;28;20127;-64
2023/05/16 06:08:41;;;;;;;2.25;1.63;;;;;13.50;98493.00;;;;5057458;28;20048;-64
2023/05/16 06:11:07;;;;;;;1.90;1.65;;;;;13.50;98504.00;;;;5055815;28;20051;-64
2023/05/16 06:13:34;;;;;;;1.65;1.38;;;;;13.50;98492.00;;;;5053510;28;20048;-65
2023/05/16 06:16:00;;;;;;;2.35;1.60;;;;;13.50;98500.00;;;;5053179;28;20394;-65
2023/05/16 06:18:28;;;;;;;1.65;1.40;;;;;13.60;98505.00;;;;5053056;28;20041;-65
2023/05/16 06:20:55;;;;;;;1.98;1.65;;;;;13.50;98504.00;;;;5054453;28;20525;-64
2023/05/16 06:23:21;;;;;;;3.45;3.00;;;;;13.50;98500.00;;;;5054502;28;20087;-65
2023/05/16 06:25:48;;;;;;;2.05;1.70;;;;;13.50;98503.00;;;;5054334;28;20537;-64
2023/05/16 06:28:14;;;;;;;1.73;1.60;;;;;13.60;98514.00;;;;5054098;28;20041;-64
2023/05/16 06:30:41;;;;;;;2.38;2.17;;;;;13.50;98512.00;;;;5053804;28;20037;-64
2023/05/16 06:33:07;;;;;;;1.95;1.50;;;;;13.40;98512.00;;;;5053906;28;20037;-64
2023/05/16 06:35:34;;;;;;;1.83;1.48;;;;;13.30;98518.00;;;;5036194;28;20049;-64
2023/05/16 06:38:00;;;;;;;1.85;1.40;;;;;13.30;98528.00;;;;5054175;28;20048;-64
2023/05/16 06:40:27;;;;;;;1.50;1.40;;;;;13.20;98514.00;;;;5052861;28;20049;-64
2023/05/16 06:42:53;;;;;;;1.88;1.63;;;;;13.20;98515.00;;;;5053737;28;20048;-64
2023/05/16 06:45:21;;;;;;;2.58;1.40;;;;;13.30;98515.00;;;;5053873;28;20049;-64
2023/05/16 06:47:47;;;;;;;1.30;1.20;;;;;13.30;98512.00;;;;5053032;28;20049;-64
2023/05/16 06:50:14;;;;;;;1.27;1.05;;;;;13.30;98523.00;;;;5053910;28;20505;-64
2023/05/16 06:52:41;;;;;;;1.30;1.20;;;;;13.30;98515.00;;;;5054211;28;20080;-64
2023/05/16 06:55:08;;;;;;;1.27;1.10;;;;;13.20;98526.00;;;;5053983;28;20453;-64
2023/05/16 06:57:35;;;;;;;1.35;1.25;;;;;13.20;98523.00;;;;5054260;28;20564;-64
2023/05/16 07:00:01;;;;;;;0.95;0.95;;;;;13.20;98526.00;;;;5078175;28;20039;-64
2023/05/16 07:02:28;;;;;;;1.48;1.38;;;;;13.30;98529.00;;;;5077593;28;20105;-64
2023/05/16 07:04:55;;;;;;;3.50;1.27;;;;;13.30;98536.00;;;;5077180;28;20037;-64
2023/05/16 07:07:21;;;;;;;3.30;1.05;;;;;13.30;98543.00;;;;5074370;28;20068;-64
2023/05/16 07:09:48;;;;;;;1.60;1.10;;;;;13.20;98537.00;;;;5077012;28;20033;-64
2023/05/16 07:12:14;;;;;;;1.58;0.98;;;;;13.20;98538.00;;;;5077858;28;20029;-62
2023/05/16 07:14:42;;;;;;;1.58;1.10;;;;;13.10;98551.00;;;;5076307;28;20123;-62
2023/05/16 07:17:10;;;;;;;1.05;1.05;;;;;13.20;98557.00;;;;5074114;28;20043;-63
2023/05/16 07:19:37;;;;;;;1.45;1.08;;;;;13.20;98563.00;;;;5074683;28;20067;-63
2023/05/16 07:22:03;;;;;;;0.73;0.73;;;;;13.10;98562.00;;;;5069404;28;20053;-66
2023/05/16 07:24:30;;;;;;;0.98;0.90;;;;;13.00;98572.00;;;;5055650;28;20098;-66
2023/05/16 07:26:57;;;;;;;2.45;1.00;;;;;12.90;98573.00;;;;5070330;28;20513;-64
2023/05/16 07:29:24;;;;;;;0.82;0.82;;;;;13.00;98570.00;;;;5066869;28;20053;-65
2023/05/16 07:31:51;;;;;;;2.08;1.25;;;;;13.00;98576.00;;;;5054576;28;20068;-65
2023/05/16 07:34:17;;;;;;;1.85;1.00;;;;;13.00;98584.00;;;;5052489;28;20080;-65
2023/05/16 07:36:44;;;;;;;2.00;0.98;;;;;13.00;98586.00;;;;5053512;28;20399;-66
2023/05/16 07:39:11;;;;;;;2.00;1.40;;;;;13.00;98588.00;;;;5052858;28;20051;-65
2023/05/16 07:41:37;;;;;;;2.22;1.70;;;;;13.00;98602.00;;;;5053151;28;20433;-65
2023/05/16 07:44:04;;;;;;;1.15;1.05;;;;;13.10;98605.00;;;;5053331;28;20051;-65
2023/05/16 07:46:30;;;;;;;2.03;0.98;;;;;13.00;98607.00;;;;5053004;28;20100;-65
2023/05/16 07:48:57;;;;;;;1.00;0.90;;;;;12.90;98608.00;;;;5052612;28;20045;-65
2023/05/16 07:51:24;;;;;;;1.05;0.90;;;;;12.80;98608.00;;;;5052886;28;20409;-65
2023/05/16 07:53:50;;;;;;;1.08;0.80;;;;;12.80;98599.00;;;;5052800;28;20402;-65
2023/05/16 07:56:17;;;;;;;1.30;1.20;;;;;12.80;98606.00;;;;5051584;28;20120;-65
2023/05/16 07:58:44;;;;;;;0.90;0.90;;;;;12.80;98604.00;;;;5051502;28;20063;-65
2023/05/16 08:01:11;;;;;;;0.90;0.90;;;;;12.80;98606.00;;;;5051394;28;20087;-65
2023/05/16 08:03:37;;;;;;;0.85;0.85;;;;;12.70;98611.00;;;;5052478;28;20056;-65
2023/05/16 08:06:04;;;;;;;0.80;0.80;;;;;12.70;98608.00;;;;5052521;28;20379;-65
2023/05/16 08:08:31;;;;;;;1.02;0.93;;;;;12.80;98612.00;;;;5052601;28;20047;-65
2023/05/16 08:10:58;;;;;;;1.27;1.13;;;;;12.70;98604.00;;;;5052399;28;20049;-65
2023/05/16 08:13:24;;;;;;;0.75;0.75;;;;;12.70;98609.00;;;;5052451;28;20037;-66
2023/05/16 08:15:51;;;;;;;0.80;0.73;;;;;12.80;98611.00;;;;5053671;28;20037;-66
2023/05/16 08:18:18;;;;;;;0.80;0.75;;;;;12.90;98624.00;;;;5055011;28;20501;-66
2023/05/16 08:20:47;;;;;;;1.85;0.60;;;;;13.00;98616.00;;;;5054923;28;20041;-64
2023/05/16 08:23:14;;;;;;;0.70;0.70;;;;;13.00;98615.00;;;;5056706;28;20045;-65
2023/05/16 08:25:41;;;;;;;1.02;0.77;;;;;13.00;98620.00;;;;5053651;28;20136;-65
2023/05/16 08:28:08;;;;;;;0.73;0.70;;;;;12.90;98617.00;;;;5054458;28;20072;-65
2023/05/16 08:30:34;;;;;;;0.98;0.85;;;;;12.90;98625.00;;;;5056240;28;20156;-64
2023/05/16 08:33:03;;;;;;;1.20;0.77;;;;;12.90;98627.00;;;;5061369;28;20044;-64
2023/05/16 08:35:30;;;;;;;0.73;0.73;;;;;12.80;98620.00;;;;5061260;28;20048;-65
2023/05/16 08:37:57;;;;;;;1.45;1.00;;;;;12.80;98619.00;;;;5062518;28;20045;-64
2023/05/16 08:40:25;;;;;;;0.80;0.80;;;;;12.80;98617.00;;;;5061325;28;20567;-63
2023/05/16 08:42:52;;;;;;;1.50;0.90;;;;;12.90;98628.00;;;;5063534;28;20045;-63
2023/05/16 08:45:21;;;;;;;0.80;0.80;;;;;12.70;98630.00;;;;5038493;28;20053;-64
2023/05/16 08:47:50;;;;;;;0.95;0.90;;;;;12.80;98628.00;;;;5036420;28;20147;-64
2023/05/16 08:50:17;;;;;;;1.55;1.00;;;;;12.90;98641.00;;;;5034612;28;20104;-64
2023/05/16 08:52:46;;;;;;;2.05;0.70;;;;;12.90;98636.00;;;;5036088;28;20073;-64
2023/05/16 08:55:14;;;;;;;1.13;0.60;;;;;12.80;98639.00;;;;5037522;28;20037;-64
2023/05/16 08:57:41;;;;;;;0.60;0.60;;;;;13.00;98641.00;;;;5039079;28;20067;-63
2023/05/16 09:00:12;;;;;;;0.60;0.60;;;;;13.00;98634.00;;;;5037776;28;20059;-64
2023/05/16 09:02:40;;;;;;;0.65;0.65;;;;;12.80;98635.00;;;;5037898;28;20069;-64
2023/05/16 09:05:09;;;;;;;3.00;0.80;;;;;12.70;98638.00;;;;5037300;28;20083;-64
2023/05/16 09:07:36;;;;;;;1.58;0.60;;;;;12.70;98639.00;;;;5036575;28;20045;-65
2023/05/16 09:10:05;;;;;;;1.25;0.77;;;;;12.70;98649.00;;;;5036004;28;20116;-65
2023/05/16 09:12:32;;;;;;;0.80;0.70;;;;;12.70;98649.00;;;;5038301;28;20033;-65
2023/05/16 09:15:01;;;;;;;2.42;1.00;;;;;12.60;98653.00;;;;5036277;28;20517;-64
2023/05/16 09:17:35;;;;;;;0.75;0.57;;;;;12.60;98654.00;;;;5037336;28;20049;-65
2023/05/16 09:20:13;;;;;;;1.85;0.80;;;;;12.50;98658.00;;;;5036348;28;20058;-64
2023/05/16 09:22:48;;;;;;;0.80;0.70;;;;;12.40;98644.00;;;;5036236;28;20076;-65
2023/05/16 09:25:19;;;;;;;1.33;1.00;;;;;12.30;98654.00;;;;5039673;28;20541;-65
2023/05/16 09:27:57;;;;;;;2.42;0.80;;;;;12.30;98656.00;;;;5040549;28;20045;-65
2023/05/16 09:30:30;;;;;;;2.38;0.75;;;;;12.40;98663.00;;;;5034088;28;20064;-64
2023/05/16 09:32:57;;;;;;;2.65;1.23;;;;;12.50;98656.00;;;;5036046;28;20052;-65
2023/05/16 09:35:25;;;;;;;3.17;1.00;;;;;12.50;98665.00;;;;5038174;28;20049;-64
2023/05/16 09:37:55;;;;;;;2.60;1.10;;;;;12.40;98661.00;;;;5038549;28;20174;-64
2023/05/16 09:40:23;;;;;;;1.20;1.05;;;;;12.50;98662.00;;;;5042572;28;20046;-64
2023/05/16 09:43:06;;;;;;;1.40;1.00;;;;;12.40;98666.00;;;;5042874;28;20516;-64
2023/05/16 09:45:35;;;;;;;1.40;0.90;;;;;12.40;98662.00;;;;5039810;28;20037;-64
2023/05/16 09:48:07;;;;;;;1.45;1.00;;;;;12.40;98671.00;;;;5042828;28;20056;-65
2023/05/16 09:50:35;;;;;;;1.63;1.08;;;;;12.40;98669.00;;;;5042619;28;20049;-64
2023/05/16 09:53:05;;;;;;;3.00;0.98;;;;;12.50;98672.00;;;;5040811;28;20564;-65
2023/05/16 09:55:32;;;;;;;2.67;1.10;;;;;12.50;98662.00;;;;5038381;28;20120;-64
2023/05/16 09:57:58;;;;;;;2.90;1.30;;;;;12.60;98661.00;;;;5041010;28;20141;-65
2023/05/16 10:00:30;;;;;;;2.58;1.00;;;;;12.80;98666.00;;;;5037063;28;20494;-65
2023/05/16 10:02:57;;;;;;;1.55;1.13;;;;;13.00;98675.00;;;;5035054;28;20564;-65
2023/05/16 10:05:28;;;;;;;2.65;1.30;;;;;13.20;98673.00;;;;5035057;28;20050;-64
2023/05/16 10:07:56;;;;;;;3.30;1.75;;;;;13.20;98672.00;;;;5033787;28;20061;-64
2023/05/16 10:10:25;;;;;;;5.68;1.33;;;;;13.30;98678.00;;;;5033337;28;20042;-64
2023/05/16 10:12:52;;;;;;;3.05;1.75;;;;;13.10;98682.00;;;;5034613;28;20072;-63
2023/05/16 10:15:19;;;;;;;2.75;1.30;;;;;13.00;98694.00;;;;5034576;28;20059;-64
2023/05/16 10:17:52;;;;;;;5.70;1.73;;;;;13.00;98682.00;;;;5034660;28;20052;-64
2023/05/16 10:20:22;;;;;;;3.42;1.60;;;;;13.10;98687.00;;;;5034441;28;20124;-64
2023/05/16 10:22:51;;;;;;;3.50;1.77;;;;;13.10;98689.00;;;;5034868;28;20451;-63
2023/05/16 10:25:38;;;;;;;6.13;1.92;;;;;13.00;98688.00;;;;5033063;28;20402;-65
2023/05/16 10:28:06;;;;;;;2.92;2.20;;;;;13.00;98690.00;;;;5032896;28;20046;-65
2023/05/16 10:30:34;;;;;;;2.78;1.60;;;;;13.10;98694.00;;;;5033903;28;20137;-66
2023/05/16 10:33:03;;;;;;;2.65;2.03;;;;;13.10;98700.00;;;;5033051;28;20103;-65
2023/05/16 10:35:31;;;;;;;2.25;1.80;;;;;13.10;98708.00;;;;5032608;28;20498;-65
2023/05/16 10:37:59;;;;;;;6.05;2.08;;;;;13.00;98707.00;;;;5032829;28;20120;-65
2023/05/16 10:40:27;;;;;;;4.72;2.10;;;;;12.90;98697.00;;;;5033742;28;20124;-64
2023/05/16 10:43:00;;;;;;;5.68;1.98;;;;;12.80;98701.00;;;;5033755;28;20052;-64
2023/05/16 10:45:27;;;;;;;4.03;2.60;;;;;12.80;98698.00;;;;5033860;28;20112;-64
2023/05/16 10:48:05;;;;;;;4.53;2.20;;;;;12.70;98706.00;;;;5033926;28;20652;-64
2023/05/16 10:50:52;;;;;;;6.05;2.22;;;;;12.60;98711.00;;;;5033498;28;20049;-65
2023/05/16 10:53:28;;;;;;;6.15;3.22;;;;;12.70;98708.00;;;;5031758;28;20566;-64
2023/05/16 10:55:58;;;;;;;5.20;2.40;;;;;12.70;98706.00;;;;5033750;28;20504;-64
2023/05/16 10:58:33;;;;;;;3.63;2.08;;;;;12.60;98704.00;;;;5016071;28;20083;-64
2023/05/16 11:01:26;;;;;;;4.88;2.22;;;;;12.70;98707.00;;;;5032086;28;20049;-64
2023/05/16 11:03:56;;;;;;;4.18;2.55;;;;;12.90;98713.00;;;;5033289;28;20470;-64
2023/05/16 11:06:34;;;;;;;8.63;2.45;;;;;13.20;98708.00;;;;5033494;28;20045;-64
2023/05/16 11:09:10;;;;;;;5.38;2.47;;;;;13.40;98709.00;;;;5033349;28;20087;-65
2023/05/16 11:11:51;;;;;;;6.72;2.35;;;;;13.40;98715.00;;;;5033620;28;20509;-65
2023/05/16 11:14:36;;;;;;;6.95;1.75;;;;;13.30;98722.00;;;;5033628;28;20411;-65
2023/05/16 11:17:13;;;;;;;;;;;;;13.20;98723.00;;;;5042132;28;20045;-65
2023/05/16 11:19:50;;;;;;;8.13;1.70;;;;;13.10;98722.00;;;;5054471;28;19905;-65
2023/05/16 11:22:26;;;;;;;6.38;1.75;;;;;12.90;98728.00;;;;5042918;28;20045;-65
2023/05/16 11:25:00;;;;;;;6.95;1.95;;;;;12.80;98721.00;;;;5031989;28;20049;-64
2023/05/16 11:27:31;;;;;;;8.88;2.25;;;;;12.80;98716.00;;;;5033099;28;20486;-64
2023/05/16 11:30:09;;;;;;;3.50;1.85;;;;;12.90;98714.00;;;;5032090;28;20077;-64
2023/05/16 11:32:38;;;;;;;7.75;2.33;;;;;13.00;98712.00;;;;5032708;28;20049;-64
2023/05/16 11:35:07;;;;;;;4.35;1.90;;;;;13.30;98707.00;;;;5033186;28;20166;-64
2023/05/16 11:37:35;;;;;;;6.38;2.00;;;;;13.50;98711.00;;;;5033270;28;20064;-64
2023/05/16 11:40:03;;;;;;;2.10;1.50;;;;;13.50;98710.00;;;;5015122;28;20140;-63
2023/05/16 11:42:33;;;;;;;7.15;1.77;;;;;13.60;98712.00;;;;5032024;28;20048;-64
2023/05/16 11:45:04;;;;;;;7.28;1.90;;;;;13.90;98714.00;;;;5015470;28;20413;-64
2023/05/16 11:47:31;;;;;;;6.60;2.47;;;;;13.80;98712.00;;;;5031695;28;20072;-64
2023/05/16 11:49:58;;;;;;;6.38;2.35;;;;;13.80;98714.00;;;;5032325;28;20045;-64
2023/05/16 11:52:25;;;;;;;8.02;1.85;;;;;13.90;98714.00;;;;5032824;28;20132;-64
2023/05/16 11:54:51;;;;;;;5.72;1.95;;;;;14.00;98717.00;;;;5014851;28;20592;-63
2023/05/16 11:57:20;;;;;;;6.45;2.03;;;;;14.10;98711.00;;;;5031697;28;20072;-63
2023/05/16 11:59:47;;;;;;;3.78;1.50;;;;;14.20;98711.00;;;;5033202;28;20040;-64
2023/05/16 12:02:14;;;;;;;5.32;1.55;;;;;14.40;98720.00;;;;5034984;28;20478;-63
2023/05/16 12:04:40;;;;;;;9.77;2.35;;;;;14.50;98719.00;;;;5033321;28;20445;-64
2023/05/16 12:07:07;;;;;;;5.80;2.03;;;;;14.60;98717.00;;;;5031113;28;20425;-64
2023/05/16 12:09:34;;;;;;;8.00;1.65;;;;;14.60;98714.00;;;;5031483;28;20041;-64
2023/05/16 12:12:03;;;;;;;6.90;1.85;;;;;14.50;98711.00;;;;5032527;28;20047;-64
2023/05/16 12:14:30;;;;;;;4.90;2.10;;;;;14.60;98713.00;;;;5030867;28;20080;-64
2023/05/16 12:16:57;;;;;;;4.57;1.90;;;;;14.90;98706.00;;;;5031157;28;20079;-64